• Join FlightAware (Why Join?)
  • Login
  • US Flag 
10:28AM EST


 

Airport Tracker/Info


-or-


 

Live Flight TrackerFlight Track Log ✈ AFL150 ✈ 29-Oct-2013 ✈ UUEE / SVO - MUHA / HAV

Flight Track Log - Related Links

Times and Time Zones

All times are in EDT time to prevent confusion due to time zone crossing. See the AFL150 flight status page for this flight to view local times or setup timezone preferences in your user account.

Time Position Orientation Groundspeed Altitude Reporting Facility
EDT Latitude Longitude Course Direction KTS MPH feet Rate Location/Type
10:59AM 58.7445 -39.0449 307° West  Level Estimated
11:00AM 58.6839 -39.2440 240° Southwest  Level Estimated
11:01AM 58.6229 -39.4424 240° Southwest  Level Estimated
11:02AM 58.5617 -39.6401 239° Southwest  Level Estimated
11:03AM 58.5001 -39.8372 239° Southwest  Level Estimated
11:04AM 58.4383 -40.0335 239° Southwest  Level Estimated
11:05AM 58.3761 -40.2291 239° Southwest  Level Estimated
11:06AM 58.3137 -40.4240 239° Southwest  Level Estimated
11:07AM 58.2509 -40.6183 239° Southwest  Level Estimated
11:08AM 58.1879 -40.8119 238° Southwest  Level Estimated
11:09AM 58.1245 -41.0047 238° Southwest  Level Estimated
11:10AM 58.0609 -41.1969 238° Southwest  Level Estimated
11:11AM 57.9970 -41.3884 238° Southwest  Level Estimated
11:12AM 57.9328 -41.5793 238° Southwest  Level Estimated
11:13AM 57.8683 -41.7694 238° Southwest  Level Estimated
11:14AM 57.8036 -41.9589 237° Southwest  Level Estimated
11:15AM 57.7385 -42.1476 237° Southwest  Level Estimated
11:16AM 57.6732 -42.3357 237° Southwest  Level Estimated
11:17AM 57.6076 -42.5232 237° Southwest  Level Estimated
11:18AM 57.5417 -42.7099 237° Southwest  Level Estimated
11:19AM 57.4755 -42.8960 237° Southwest  Level Estimated
11:20AM 57.4091 -43.0814 236° Southwest  Level Estimated
11:21AM 57.3424 -43.2661 236° Southwest  Level Estimated
11:22AM 57.2754 -43.4501 236° Southwest  Level Estimated
11:23AM 57.2082 -43.6335 236° Southwest  Level Estimated
11:24AM 57.1407 -43.8162 236° Southwest  Level Estimated
11:25AM 57.0729 -43.9983 236° Southwest  Level Estimated
11:26AM 57.0049 -44.1797 235° Southwest  Level Estimated
11:27AM 56.9366 -44.3604 235° Southwest  Level Estimated
11:28AM 56.8681 -44.5405 235° Southwest  Level Estimated
11:29AM 56.7993 -44.7198 235° Southwest  Level Estimated
11:30AM 56.7302 -44.8986 235° Southwest  Level Estimated
11:31AM 56.6609 -45.0767 235° Southwest  Level Estimated
11:32AM 56.5913 -45.2541 235° Southwest  Level Estimated
11:33AM 56.5215 -45.4309 234° Southwest  Level Estimated
11:34AM 56.4514 -45.6070 234° Southwest  Level Estimated
11:35AM 56.3810 -45.7825 234° Southwest  Level Estimated
11:36AM 56.3105 -45.9573 234° Southwest  Level Estimated
11:37AM 56.2397 -46.1315 234° Southwest  Level Estimated
11:38AM 56.1686 -46.3050 234° Southwest  Level Estimated
11:39AM 56.0973 -46.4779 234° Southwest  Level Estimated
11:40AM 56.0257 -46.6501 233° Southwest  Level Estimated
11:41AM 55.9540 -46.8217 233° Southwest  Level Estimated
11:42AM 55.8820 -46.9927 233° Southwest  Level Estimated
11:43AM 55.8097 -47.1631 233° Southwest  Level Estimated
11:44AM 55.7372 -47.3328 233° Southwest  Level Estimated
11:45AM 55.6645 -47.5019 233° Southwest  Level Estimated
11:46AM 55.5915 -47.6703 233° Southwest  Level Estimated
11:47AM 55.5183 -47.8381 232° Southwest  Level Estimated
11:48AM 55.4449 -48.0053 232° Southwest  Level Estimated
11:49AM 55.3713 -48.1719 232° Southwest  Level Estimated
11:50AM 55.2974 -48.3379 232° Southwest  Level Estimated
11:51AM 55.2233 -48.5032 232° Southwest  Level Estimated
11:52AM 55.1490 -48.6679 232° Southwest  Level Estimated
11:53AM 55.0745 -48.8321 232° Southwest  Level Estimated
11:54AM 54.9997 -48.9955 231° Southwest  Level Estimated
11:55AM 54.9248 -49.1584 231° Southwest  Level Estimated
11:56AM 54.8496 -49.3207 231° Southwest  Level Estimated
11:57AM 54.7742 -49.4824 231° Southwest  Level Estimated
11:58AM 54.6985 -49.6435 231° Southwest  Level Estimated
11:59AM 54.6227 -49.8040 231° Southwest  Level Estimated
12:00PM 54.5467 -49.9638 231° Southwest  Level Estimated
12:01PM 54.4704 -50.1231 231° Southwest  Level Estimated
12:02PM 54.3940 -50.2818 230° Southwest  Level Estimated
12:03PM 54.3173 -50.4399 230° Southwest  Level Estimated
12:04PM 54.2404 -50.5974 230° Southwest  Level Estimated
12:05PM 54.1633 -50.7544 230° Southwest  Level Estimated
12:06PM 54.0860 -50.9107 230° Southwest  Level Estimated
12:07PM 54.0085 -51.0665 230° Southwest  Level Estimated
12:08PM 53.9309 -51.2216 230° Southwest  Level Estimated
12:09PM 53.8530 -51.3763 230° Southwest  Level Estimated
12:10PM 53.7749 -51.5303 229° Southwest  Level Estimated
12:11PM 53.6966 -51.6837 229° Southwest  Level Estimated
12:12PM 53.6181 -51.8366 229° Southwest  Level Estimated
12:13PM 53.5395 -51.9889 229° Southwest  Level Estimated
12:14PM 53.4606 -52.1407 229° Southwest  Level Estimated
12:15PM 53.3805 -52.2938 229° Southwest  Level Estimated
12:16PM 53.3003 -52.4463 229° Southwest  Level Estimated
12:17PM 53.2198 -52.5983 229° Southwest  Level Estimated
12:18PM 53.1392 -52.7497 228° Southwest  Level Estimated
12:19PM 53.0583 -52.9005 228° Southwest  Level Estimated
12:20PM 52.9773 -53.0508 228° Southwest  Level Estimated
12:21PM 52.8961 -53.2004 228° Southwest  Level Estimated
12:21PM 59.5667 -56.5167 227° Southwest 430 495 34,000  Level Gander Center
12:22PM 52.8147 -53.3496 228° Southwest  Level Estimated
12:22PM 59.5167 -56.6500 234° Southwest 430 495 34,000  Level Gander Center
12:23PM 52.7331 -53.4981 228° Southwest  Level Estimated
12:23PM 59.4167 -56.8333 223° Southwest 430 495 34,000  Level Gander Center
12:24PM 52.6513 -53.6462 228° Southwest  Level Estimated
12:24PM 59.3333 -56.9667 219° Southwest 430 495 34,000  Level Gander Center
12:25PM 52.5694 -53.7936 228° Southwest  Level Estimated
12:25PM 59.2333 -57.1167 218° Southwest 420 483 34,000  Level Gander Center
12:26PM 52.4873 -53.9406 227° Southwest  Level Estimated
12:26PM 59.1500 -57.2167 212° Southwest 430 495 34,000  Level Gander Center
12:27PM 59.0500 -57.3667 218° Southwest 430 495 34,000  Level Gander Center
12:28PM 58.9500 -57.4667 207° Southwest 420 483 34,000  Level Gander Center
12:29PM 58.8500 -57.6167 218° Southwest 430 495 34,000  Level Gander Center
12:30PM 58.7500 -57.7500 215° Southwest 420 483 34,000  Level Gander Center
12:31PM 58.6500 -57.8500 207° Southwest 430 495 34,000  Level Gander Center
12:32PM 58.5667 -57.9833 220° Southwest 420 483 34,000  Level Gander Center
12:33PM 58.4667 -58.1333 218° Southwest 420 483 34,000  Level Gander Center
12:34PM 58.3500 -58.2333 204° Southwest 420 483 34,000  Level Gander Center
12:35PM 58.2500 -58.3667 215° Southwest 420 483 34,000  Level Gander Center
12:36PM 58.1500 -58.5000 215° Southwest 430 495 34,000  Level Gander Center
12:37PM 58.0667 -58.6000 212° Southwest 430 495 34,000  Level Gander Center
12:38PM 57.9667 -58.7333 215° Southwest 430 495 34,000  Level Gander Center
12:39PM 57.8667 -58.8667 215° Southwest 430 495 34,000  Level Gander Center
12:40PM 57.7667 -58.9667 208° Southwest 430 495 34,000  Level Gander Center
12:41PM 57.6667 -59.1000 216° Southwest 430 495 34,000  Level Gander Center
12:42PM 57.5500 -59.2333 212° Southwest 430 495 34,000  Level Gander Center
12:43PM 57.4500 -59.3333 208° Southwest 430 495 34,000  Level Gander Center
12:44PM 57.3500 -59.4500 212° Southwest 430 495 34,000  Level Gander Center
12:45PM 57.2667 -59.5833 221° Southwest 430 495 34,000  Level Gander Center
12:46PM 57.1500 -59.6833 205° Southwest 430 495 34,000  Level Gander Center
12:47PM 57.0500 -59.8167 216° Southwest 430 495 34,000  Level Gander Center
12:48PM 56.9500 -59.9333 212° Southwest 430 495 34,000  Level Gander Center
12:49PM 56.8500 -60.0667 216° Southwest 430 495 34,000  Level Gander Center
12:50PM 56.7333 -60.1500 201° Southwest 420 483 34,000  Level Gander Center
12:51PM 56.6333 -60.2833 216° Southwest 430 495 34,000  Level Gander Center
12:52PM 56.5333 -60.4000 213° Southwest 430 495 34,000  Level Gander Center
12:53PM 56.4333 -60.5000 209° Southwest 430 495 34,000  Level Gander Center
12:54PM 56.3333 -60.6167 213° Southwest 430 495 34,000  Level Gander Center
12:55PM 56.2167 -60.7500 212° Southwest 440 506 34,000  Level Gander Center
12:56PM 56.1167 -60.8667 213° Southwest 440 506 34,000  Level Gander Center
12:57PM 56.0167 -60.9500 205° Southwest 440 506 34,000  Level Gander Center
12:58PM 55.9000 -61.0667 209° Southwest 440 506 34,000  Level Gander Center
12:59PM 55.8000 -61.2000 217° Southwest 430 495 34,000  Level Gander Center
01:00PM 55.7000 -61.2833 205° Southwest 440 506 34,000  Level Gander Center
01:01PM 55.6000 -61.4000 213° Southwest 440 506 34,000  Level Gander Center
01:02PM 55.5000 -61.5167 213° Southwest 440 506 34,000  Level Gander Center
01:03PM 55.3833 -61.6333 210° Southwest 440 506 34,000  Level Gander Center
01:04PM 55.2833 -61.7167 205° Southwest 430 495 34,000  Level Gander Center
01:05PM 55.1833 -61.8333 214° Southwest 430 495 34,000  Level Gander Center
01:06PM 55.0833 -61.9500 214° Southwest 430 495 34,000  Level Gander Center
01:07PM 54.9833 -62.0333 206° Southwest 430 495 34,000  Level Gander Center
01:08PM 54.8667 -62.1500 210° Southwest 430 495 34,000  Level Gander Center
01:09PM 54.7833 -62.2333 210° Southwest 430 495 34,000  Level Gander Center
01:10PM 54.6667 -62.3500 210° Southwest 430 495 34,000  Level Gander Center
01:11PM 54.5667 -62.4667 214° Southwest 420 483 34,000  Level Gander Center
01:12PM 54.4667 -62.5833 214° Southwest 430 495 34,000  Level Gander Center
01:13PM 54.3500 -62.6667 203° Southwest 430 495 34,000  Level Gander Center
01:14PM 54.2333 -62.7667 207° Southwest 430 495 34,000  Level Gander Center
01:15PM 54.1500 -62.8500 210° Southwest 430 495 34,000  Level Gander Center
01:16PM 54.0500 -62.9667 214° Southwest 430 495 34,000  Level Gander Center
01:17PM 53.9333 -63.0667 207° Southwest 430 495 34,000  Level Gander Center
01:18PM 53.8333 -63.1500 206° Southwest 430 495 34,000  Level Gander Center
01:19PM 53.7333 -63.2667 215° Southwest 430 495 34,000  Level Gander Center
01:20PM 53.6333 -63.3667 211° Southwest 430 495 34,000  Level Gander Center
01:21PM 53.5167 -63.4500 203° Southwest 430 495 34,000  Level Gander Center
01:22PM 53.4167 -63.5500 211° Southwest 430 495 34,000  Level Gander Center
01:23PM 53.3000 -63.6667 211° Southwest 430 495 34,000  Level Gander Center
01:24PM 53.2000 -63.7333 202° Southwest 430 495 34,000  Level Gander Center
01:25PM 53.1000 -63.8500 215° Southwest 430 495 34,000  Level Gander Center
01:26PM 53.0000 -63.9500 211° Southwest 430 495 34,000  Level Gander Center
01:27PM 52.9000 -64.0333 207° Southwest 430 495 34,000  Level Gander Center
01:28PM 52.7833 -64.1333 207° Southwest 430 495 34,000  Level Gander Center
01:29PM 52.6833 -64.2000 202° Southwest 430 495 34,000  Level Gander Center
01:30PM 52.5667 -64.3167 211° Southwest 430 495 34,000  Level Gander Center
01:31PM 52.4667 -64.4167 211° Southwest 430 495 34,000  Level Gander Center
01:32PM 52.3667 -64.5167 211° Southwest 430 495 34,000  Level Gander Center
01:33PM 52.2667 -64.5833 202° Southwest 430 495 34,000  Level Gander Center
01:34PM 52.1667 -64.6833 212° Southwest 430 495 34,000  Level Gander Center
01:35PM 52.0833 -64.7500 206° Southwest 430 495 34,000 180 Level Moncton Center
01:36PM 51.9833 -64.8333 207° Southwest 420 483 34,300 840 Climbing Moncton Center
01:37PM 51.8833 -64.9167 207° Southwest 420 483 35,700 840 Climbing Moncton Center
01:38PM 51.7833 -65.0000 207° Southwest 410 472 36,000 120 Climbing Moncton Center
01:39PM 51.6833 -65.0667 202° Southwest 420 483 36,000  Level Moncton Center
01:40PM 51.5833 -65.1833 216° Southwest 420 483 36,000  Level Moncton Center
01:41PM 51.4833 -65.2500 203° Southwest 420 483 36,000  Level Moncton Center
01:42PM 51.3667 -65.3333 204° Southwest 420 483 36,000  Level Moncton Center
01:43PM 51.2667 -65.4333 212° Southwest 420 483 36,000  Level Moncton Center
01:44PM 51.1667 -65.5167 208° Southwest 420 483 36,000  Level Moncton Center
01:45PM 51.0667 -65.6000 208° Southwest 420 483 36,000  Level Moncton Center
01:46PM 50.9500 -65.6667 200° South 420 483 36,000  Level Moncton Center
01:47PM 50.8333 -65.7833 212° Southwest 420 483 36,000  Level Moncton Center
01:48PM 50.7333 -65.8500 203° Southwest 420 483 36,000  Level Moncton Center
01:49PM 50.6333 -65.9500 212° Southwest 420 483 36,000  Level Moncton Center
01:50PM 50.5333 -66.0333 208° Southwest 410 472 36,000  Level Moncton Center
01:51PM 50.4333 -66.1000 203° Southwest 420 483 36,000  Level Moncton Center
01:52PM 50.3333 -66.1833 208° Southwest 420 483 36,000  Level Moncton Center
01:53PM 50.2333 -66.2500 203° Southwest 410 472 36,000  Level Moncton Center
01:54PM 50.0667 -66.3667 204° Southwest 410 472 36,000  Level Gander Center
01:55PM 49.9667 -66.4000 192° South 410 472 36,000  Level Gander Center
01:56PM 49.9167 -66.4500 213° Southwest 410 472 36,000  Level Moncton Center
01:57PM 49.7833 -66.5167 198° South 420 483 36,000  Level Moncton Center
01:58PM 49.6833 -66.5667 198° South 420 483 36,000  Level Moncton Center
01:59PM 49.5667 -66.6500 205° Southwest 420 483 36,000  Level Moncton Center
02:00PM 49.4667 -66.6833 192° South 420 483 36,000  Level Moncton Center
02:01PM 49.3500 -66.7667 205° Southwest 420 483 36,000  Level Moncton Center
02:02PM 49.2500 -66.8000 192° South 420 483 36,000  Level Moncton Center
02:03PM 49.1333 -66.8833 205° Southwest 420 483 36,000  Level Moncton Center
02:04PM 49.0167 -66.9167 191° South 420 483 36,000  Level Moncton Center
02:05PM 48.9167 -67.0000 209° Southwest 420 483 36,000  Level Moncton Center
02:06PM 48.7833 -67.0333 189° South 420 483 36,000  Level Moncton Center
02:07PM 48.6833 -67.1167 209° Southwest 420 483 36,000  Level Moncton Center
02:08PM 48.5833 -67.1833 204° Southwest 410 472 36,000  Level Moncton Center
02:09PM 48.4667 -67.2333 196° South 410 472 36,000  Level Moncton Center
02:10PM 48.3667 -67.2667 192° South 420 483 36,000  Level Moncton Center
02:11PM 48.2500 -67.3333 201° Southwest 420 483 36,000  Level Moncton Center
02:12PM 48.1500 -67.3833 198° South 420 483 36,000  Level Moncton Center
02:13PM 48.0333 -67.4500 201° Southwest 420 483 36,000  Level Moncton Center
02:14PM 47.9333 -67.5167 204° Southwest 410 472 36,000  Level Moncton Center
02:15PM 47.8000 -67.5667 194° South 410 472 36,000  Level Moncton Center
02:16PM 47.7000 -67.6333 204° Southwest 410 472 36,000  Level Moncton Center
02:17PM 47.6000 -67.6667 193° South 410 472 36,000  Level Moncton Center
02:18PM 47.5000 -67.7500 209° Southwest 400 460 36,000  Level Moncton Center
02:19PM 47.4000 -67.8333 209° Southwest 400 460 36,000  Level Moncton Center
02:19PM 47.3564 -67.8842 218° Southwest 403 464 36,000  Level Boston Center
02:20PM 47.2597 -67.9656 210° Southwest 402 463 36,000  Level Boston Center
02:21PM 47.1633 -68.0481 210° Southwest 402 463 36,000  Level Boston Center
02:22PM 47.0658 -68.1303 210° Southwest 403 464 36,000  Level Boston Center
02:23PM 46.9633 -68.2183 210° Southwest 403 464 36,000  Level Boston Center
02:24PM 46.8653 -68.3031 211° Southwest 408 470 36,000  Level Boston Center
02:25PM 46.7664 -68.3853 210° Southwest 408 470 36,000  Level Boston Center
02:26PM 46.6667 -68.4656 209° Southwest 408 470 36,000  Level Boston Center
02:27PM 46.5681 -68.5478 210° Southwest 407 468 36,000  Level Boston Center
02:28PM 46.4492 -68.6467 210° Southwest 409 471 36,000  Level Boston Center
02:29PM 46.3486 -68.7286 209° Southwest 412 474 36,000  Level Boston Center
02:31PM 46.2458 -68.8111 209° Southwest 411 473 36,000  Level Boston Center
02:32PM 46.1469 -68.8911 209° Southwest 410 472 36,000  Level Boston Center
02:33PM 46.0489 -68.9714 210° Southwest 407 468 36,000  Level Boston Center
02:34PM 45.9506 -69.0508 209° Southwest 406 467 36,000  Level Boston Center
02:35PM 45.8517 -69.1311 209° Southwest 407 468 36,000  Level Boston Center
02:36PM 45.7525 -69.2094 209° Southwest 409 471 36,000  Level Boston Center
02:37PM 45.6533 -69.2886 209° Southwest 407 468 36,000  Level Boston Center
02:38PM 45.5542 -69.3661 209° Southwest 406 467 36,000  Level Boston Center
02:39PM 45.4553 -69.4447 209° Southwest 406 467 36,000  Level Boston Center
02:40PM 45.3550 -69.5217 208° Southwest 408 470 36,000  Level Boston Center
02:41PM 45.2367 -69.6156 209° Southwest 407 468 36,000  Level Boston Center
02:42PM 45.1381 -69.6917 209° Southwest 407 468 36,000  Level Boston Center
02:43PM 45.0403 -69.7675 209° Southwest 404 465 36,000  Level Boston Center
02:44PM 44.9433 -69.8411 208° Southwest 401 461 36,000  Level Boston Center
02:45PM 44.8450 -69.9164 208° Southwest 405 466 36,000  Level Boston Center
02:46PM 44.7458 -69.9936 209° Southwest 409 471 36,000  Level Boston Center
02:47PM 44.6464 -70.0703 209° Southwest 407 468 36,000  Level Boston Center
02:48PM 44.5464 -70.1475 209° Southwest 409 471 36,000  Level Boston Center
02:49PM 44.4250 -70.2381 208° Southwest 411 473 36,000  Level Boston Center
02:50PM 44.3231 -70.3136 208° Southwest 413 475 36,000  Level Boston Center
02:51PM 44.2233 -70.3903 209° Southwest 410 472 36,000  Level Boston Center
02:52PM 44.1211 -70.4672 208° Southwest 415 478 36,000  Level Boston Center
02:53PM 44.0206 -70.5419 208° Southwest 409 471 36,000  Level Boston Center
02:54PM 43.9186 -70.6169 208° Southwest 411 473 36,000  Level Boston Center
02:55PM 43.8172 -70.6900 207° Southwest 409 471 36,000  Level Boston Center
02:56PM 43.7161 -70.7697 210° Southwest 413 475 36,000  Level Boston Center
02:57PM 43.6061 -70.8489 208° Southwest 410 472 36,000  Level Boston Center
02:58PM 43.5033 -70.9228 208° Southwest 415 478 36,000  Level Boston Center
02:59PM 43.4019 -70.9975 208° Southwest 414 476 36,000  Level Boston Center
03:00PM 43.2828 -71.0825 207° Southwest 416 479 36,000  Level Boston Center
03:01PM 43.1806 -71.1581 208° Southwest 417 480 36,000  Level Boston Center
03:02PM 43.0778 -71.2314 208° Southwest 418 481 36,000  Level Boston Center
03:03PM 42.9747 -71.3053 208° Southwest 419 482 36,000  Level Boston Center
03:04PM 42.8708 -71.3797 208° Southwest 422 486 36,000  Level Boston Center
03:05PM 42.7664 -71.4533 207° Southwest 424 488 36,000  Level Boston Center
03:06PM 42.6633 -71.5267 208° Southwest 421 484 36,000  Level Boston Center
03:07PM 42.5506 -71.6069 208° Southwest 424 488 36,000  Level Boston Center
03:08PM 42.4467 -71.6806 208° Southwest 423 487 36,000  Level Boston Center
03:09PM 42.3411 -71.7528 207° Southwest 424 488 36,000  Level Boston Center
03:10PM 42.2364 -71.8261 207° Southwest 424 488 36,000  Level Boston Center
03:11PM 42.1311 -71.8983 207° Southwest 423 487 36,000  Level Boston Center
03:12PM 42.0044 -71.9842 207° Southwest 424 488 36,000  Level Boston Center
03:14PM 41.8994 -72.0572 207° Southwest 425 489 36,000  Level Boston Center
03:15PM 41.7950 -72.1281 207° Southwest 423 487 36,000  Level Boston Center
03:17PM 41.5858 -72.2700 207° Southwest 420 483 36,000  Level Boston Center
03:18PM 41.4753 -72.3453 207° Southwest 420 483 36,000  Level Boston Center
03:19PM 41.3722 -72.4169 208° Southwest 420 483 36,000  Level Boston Center
03:20PM 41.2692 -72.4858 207° Southwest 417 480 36,000  Level Boston Center
03:21PM 41.1783 -72.5681 214° Southwest 416 479 36,000  Level Boston Center
03:22PM 41.0692 -72.6792 218° Southwest 413 475 36,000  Level Boston Center
03:23PM 40.9756 -72.7697 216° Southwest 417 480 36,000  Level Boston Center
03:24PM 40.8833 -72.8619 217° Southwest 417 480 36,000  Level Boston Center
03:25PM 40.7883 -72.9533 216° Southwest 421 484 36,000  Level Boston Center
03:26PM 40.6892 -73.0494 216° Southwest 422 486 36,000  Level Boston Center
03:27PM 40.5947 -73.1403 216° Southwest 420 483 36,000  Level Boston Center
03:28PM 40.5000 -73.2311 216° Southwest 421 484 36,000  Level Boston Center
03:29PM 40.4047 -73.3217 216° Southwest 422 486 36,000  Level Boston Center
03:30PM 40.3086 -73.4128 216° Southwest 425 489 36,000  Level Boston Center
03:31PM 40.2119 -73.5056 216° Southwest 430 495 36,000  Level Boston Center
03:32PM 40.1036 -73.6064 215° Southwest 435 501 36,000  Level Boston Center
03:33PM 39.9944 -73.7103 216° Southwest 440 506 36,000  Level Boston Center
03:34PM 39.8936 -73.8039 215° Southwest 444 511 36,000  Level Boston Center
03:35PM 39.7922 -73.8989 216° Southwest 447 514 36,000  Level Boston Center
03:36PM 39.6906 -73.9947 216° Southwest 451 519 36,000  Level Boston Center
03:37PM 39.5864 -74.0903 215° Southwest 457 526 36,000  Level Boston Center
03:38PM 39.4806 -74.1875 215° Southwest 461 531 36,000  Level Boston Center
03:39PM 39.3753 -74.2828 215° Southwest 462 532 36,000  Level Boston Center
03:40PM 39.2408 -74.4072 216° Southwest 467 537 36,000  Level Washington Center
03:41PM 39.1356 -74.5025 215° Southwest 467 537 36,000  Level Washington Center
03:42PM 39.0342 -74.5975 216° Southwest 467 537 36,000  Level Washington Center
03:43PM 38.9286 -74.6897 214° Southwest 467 537 36,000  Level Washington Center
03:44PM 38.8272 -74.7842 216° Southwest 467 537 36,000  Level Washington Center
03:45PM 38.7214 -74.8678 212° Southwest 467 537 36,000  Level Washington Center
03:46PM 38.6114 -74.9514 211° Southwest 467 537 36,000  Level Washington Center
03:47PM 38.4992 -75.0292 208° Southwest 467 537 36,000  Level Washington Center
03:48PM 38.3889 -75.1122 211° Southwest 461 531 36,000  Level Washington Center
03:49PM 38.2808 -75.1950 211° Southwest 461 531 36,000  Level Washington Center
03:50PM 38.1728 -75.2747 210° Southwest 461 531 36,000  Level Washington Center
03:51PM 38.0622 -75.3492 208° Southwest 461 531 36,000  Level Washington Center
03:52PM 37.9542 -75.4311 211° Southwest 461 531 36,000  Level Washington Center
03:53PM 37.8456 -75.5075 209° Southwest 461 531 36,000  Level Washington Center
03:54PM 37.7372 -75.5892 211° Southwest 461 531 36,000  Level Washington Center
03:55PM 37.6267 -75.6625 208° Southwest 461 531 36,000  Level Washington Center
03:56PM 37.5181 -75.7411 210° Southwest 461 531 36,000  Level Washington Center
03:57PM 37.4033 -75.8219 209° Southwest 466 536 36,000  Level Washington Center
03:58PM 37.2925 -75.9000 209° Southwest 466 536 36,000  Level Washington Center
03:59PM 37.1778 -75.9803 209° Southwest 466 536 36,000  Level Washington Center
04:00PM 37.0669 -76.0578 209° Southwest 466 536 36,000  Level Washington Center
04:01PM 36.9603 -76.1247 207° Southwest 471 542 36,000  Level Washington Center
04:02PM 36.8472 -76.2044 209° Southwest 478 550 36,000  Level Washington Center
04:03PM 36.7342 -76.2814 209° Southwest 478 550 36,000  Level Washington Center
04:04PM 36.6208 -76.3631 210° Southwest 478 550 36,000  Level Washington Center
04:05PM 36.5056 -76.4422 209° Southwest 478 550 36,000  Level Washington Center
04:06PM 36.3903 -76.5208 209° Southwest 478 550 36,000  Level Washington Center
04:07PM 36.2750 -76.5994 209° Southwest 478 550 36,000  Level Washington Center
04:08PM 36.1594 -76.6725 207° Southwest 478 550 36,000  Level Washington Center
04:09PM 36.0461 -76.7531 210° Southwest 478 550 36,000  Level Washington Center
04:10PM 35.9286 -76.8308 208° Southwest 478 550 36,000  Level Washington Center
04:11PM 35.8172 -76.9061 209° Southwest 473 544 36,000  Level Washington Center
04:12PM 35.7036 -76.9836 209° Southwest 473 544 36,000  Level Washington Center
04:13PM 35.5836 -77.0656 209° Southwest 458 527 36,000  Level Washington Center
04:14PM 35.4700 -77.1428 209° Southwest 464 534 36,000  Level Washington Center
04:15PM 35.3542 -77.2169 208° Southwest 464 534 36,000  Level Washington Center
04:16PM 35.2428 -77.2908 208° Southwest 464 534 36,000  Level Washington Center
04:17PM 35.1289 -77.3672 209° Southwest 464 534 36,000  Level Washington Center
04:18PM 35.0131 -77.4433 208° Southwest 464 534 36,000  Level Washington Center
04:19PM 34.8969 -77.5167 207° Southwest 464 534 36,000  Level Washington Center
04:20PM 34.7956 -77.5900 211° Southwest 464 534 36,000  Level Washington Center
04:21PM 34.6839 -77.6631 208° Southwest 464 534 36,000  Level Washington Center
04:22PM 34.5700 -77.7358 208° Southwest 464 534 36,000  Level Washington Center
04:23PM 34.4558 -77.8111 209° Southwest 464 534 36,000  Level Washington Center
04:24PM 34.3397 -77.8808 206° Southwest 464 534 36,000  Level Washington Center
04:25PM 34.1867 -77.9217 192° South 511 588 36,000  Level Washington Center
04:27PM 33.9167 -77.9978 193° South 506 582 36,000  Level Jacksonville Center
04:28PM 33.7847 -78.0378 194° South 500 575 36,000  Level Jacksonville Center
04:29PM 33.6361 -78.0808 194° South 500 575 36,000  Level Jacksonville Center
04:30PM 33.5039 -78.1178 193° South 505 581 36,000  Level Jacksonville Center
04:31PM 33.3719 -78.1547 193° South 500 575 36,000  Level Jacksonville Center
04:32PM 33.2419 -78.1939 194° South 495 570 36,000  Level Jacksonville Center
04:33PM 33.1094 -78.2281 192° South 490 564 36,000  Level Jacksonville Center
04:34PM 32.9775 -78.2672 194° South 490 564 36,000  Level Jacksonville Center
04:35PM 32.8453 -78.3036 193° South 490 564 36,000  Level Jacksonville Center
04:36PM 32.7131 -78.3400 193° South 490 564 36,000  Level Jacksonville Center
04:37PM 32.5808 -78.3786 194° South 490 564 36,000  Level Jacksonville Center
04:38PM 32.4464 -78.4125 192° South 490 564 36,000  Level Jacksonville Center
04:39PM 32.3308 -78.4525 196° South 490 564 36,000  Level Jacksonville Center
04:40PM 32.2006 -78.4883 193° South 490 564 36,000  Level Jacksonville Center
04:41PM 32.0664 -78.5292 194° South 490 564 36,000  Level Jacksonville Center
04:42PM 31.9361 -78.5669 194° South 490 564 36,000  Level Jacksonville Center
04:43PM 31.8100 -78.6022 193° South 485 558 36,000  Level Jacksonville Center
04:44PM 31.6797 -78.6425 195° South 480 552 36,000  Level Jacksonville Center
04:45PM 31.5517 -78.6775 193° South 480 552 36,000  Level Jacksonville Center
04:46PM 31.4253 -78.7125 193° South 480 552 36,000  Level Jacksonville Center
04:47PM 31.2992 -78.7497 194° South 475 547 36,000  Level Jacksonville Center
04:48PM 31.1689 -78.7847 193° South 475 547 36,000  Level Jacksonville Center
04:49PM 31.0364 -78.8219 194° South 475 547 36,000  Level Jacksonville Center
04:50PM 30.9019 -78.8617 194° South 488 562 36,000  Level Jacksonville Center
04:52PM 30.6906 -78.9197 193° South 484 557 36,000  Level Miami Center
04:53PM 30.5567 -78.9581 194° South 492 566 36,000  Level Miami Center
04:54PM 30.4289 -78.9964 195° South 486 559 36,000  Level Miami Center
04:55PM 30.2989 -79.0489 199° South 491 565 36,000  Level Miami Center
04:56PM 30.1669 -79.0869 194° South 491 565 36,000  Level Miami Center
04:57PM 30.0311 -79.1178 191° South 496 571 36,000  Level Miami Center
04:58PM 29.9178 -79.1561 196° South 490 564 36,000  Level Miami Center
04:59PM 29.7819 -79.1819 189° South 490 564 36,000  Level Miami Center
05:00PM 29.6519 -79.2197 194° South 490 564 36,000  Level Miami Center
05:01PM 29.5119 -79.2428 188° South 493 567 36,000  Level Miami Center
05:02PM 29.3717 -79.2756 192° South 493 567 36,000  Level Miami Center
05:03PM 29.2375 -79.3033 190° South 487 560 36,000  Level Miami Center
05:04PM 29.1097 -79.3458 196° South 481 554 36,000  Level Miami Center
05:05PM 28.9856 -79.3975 200° South 481 554 36,000  Level Miami Center
05:06PM 28.8636 -79.4469 200° South 481 554 36,000  Level Miami Center
05:07PM 28.7397 -79.4983 200° South 476 548 36,000  Level Miami Center
05:08PM 28.6156 -79.5500 200° South 476 548 36,000  Level Miami Center
05:09PM 28.4894 -79.5989 199° South 476 548 36,000  Level Miami Center
05:10PM 28.3675 -79.6478 199° South 476 548 36,000  Level Miami Center
05:11PM 28.2433 -79.6989 200° South 476 548 36,000  Level Miami Center
05:12PM 28.1192 -79.7500 200° South 476 548 36,000  Level Miami Center
05:13PM 27.9950 -79.8008 200° South 476 548 36,000  Level Miami Center
05:14PM 27.8728 -79.8494 199° South 476 548 36,000  Level Miami Center
05:15PM 27.7508 -79.9003 200° South 469 540 36,000  Level Miami Center
05:16PM 27.6244 -79.9508 200° South 474 545 36,000  Level Miami Center
05:17PM 27.5000 -80.0011 200° South 474 545 36,000  Level Miami Center
05:18PM 27.3781 -80.0494 199° South 474 545 36,000  Level Miami Center
05:19PM 27.2517 -80.0994 199° South 474 545 36,000  Level Miami Center
05:20PM 27.1272 -80.1497 200° South 474 545 36,000  Level Miami Center
05:21PM 27.0028 -80.2000 200° South 474 545 36,000  Level Miami Center
05:22PM 26.8806 -80.2475 199° South 474 545 36,000  Level Miami Center
05:23PM 26.7606 -80.2975 200° South 474 545 36,000  Level Miami Center
05:24PM 26.6339 -80.3472 199° South 474 545 36,000  Level Miami Center
05:25PM 26.5117 -80.3972 200° South 474 545 36,000  Level Miami Center
05:26PM 26.3831 -80.4467 199° South 474 545 36,000  Level Miami Center
05:27PM 26.2586 -80.4961 200° South 474 545 36,000  Level Miami Center
05:28PM 26.1511 -80.5392 200° South 474 545 36,000  Level Miami Center
05:29PM 26.0117 -80.5950 200° South 474 545 36,000  Level Miami Center
05:30PM 25.8931 -80.6581 206° Southwest 474 545 36,000  Level Miami Center
05:31PM 25.7989 -80.7497 221° Southwest 461 531 36,000  Level Miami Center
05:32PM 25.7044 -80.8458 223° Southwest 461 531 36,000  Level Miami Center
05:33PM 25.6119 -80.9372 222° Southwest 461 531 36,000  Level Miami Center
05:34PM 25.5153 -81.0331 222° Southwest 461 531 36,000  Level Miami Center
05:35PM 25.4208 -81.1264 222° Southwest 461 531 36,000  Level Miami Center
05:36PM 25.3283 -81.2219 223° Southwest 455 524 36,000  Level Miami Center
05:37PM 25.2336 -81.3125 221° Southwest 455 524 36,000  Level Miami Center
05:38PM 25.1367 -81.4100 222° Southwest 455 524 36,000 -180 Level Miami Center
05:39PM 25.0439 -81.5028 222° Southwest 461 531 35,700 -600 Descending Miami Center
05:40PM 24.9533 -81.5933 222° Southwest 454 522 34,800 -900 Descending Miami Center
05:41PM 24.8717 -81.6703 221° Southwest 443 510 33,900 -1,080 Descending Miami Center
05:42PM 24.7850 -81.7583 223° Southwest 436 502 32,700 -1,200 Descending Miami Center
05:43PM 24.6900 -81.8553 223° Southwest 430 495 31,500 -1,140 Descending Miami Center
05:44PM 24.6017 -81.9383 221° Southwest 425 489 30,500 -1,080 Descending Miami Center
05:45PM 24.5131 -82.0192 220° Southwest 420 483 29,400 -1,080 Descending Miami Center
05:46PM 24.4308 -82.1025 223° Southwest 420 483 28,400 -960 Descending Miami Center
05:47PM 24.3467 -82.1808 220° Southwest 415 478 27,500 -900 Descending Miami Center
05:48PM 24.2644 -82.2639 223° Southwest 415 478 26,600 -1,380 Descending Miami Center
05:49PM 24.1781 -82.3422 220° Southwest 403 464 24,800 -1,800 Descending Miami Center
05:50PM 24.0997 -82.4253 224° Southwest 397 457 23,100 -1,740 Descending Miami Center
05:52PM 23.9567 -82.5105 173° South  Level FlightAware Approximate
05:59PM 23.1428 -82.4167 180° South  Level FlightAware Approximate
06:00PM 23.0271 -82.4000 180° South  Level FlightAware Approximate
06:01PM 22.9891 -82.4091 180° South  Level Estimated
06:02PM 22.9891 -82.4091 180° South  Level Estimated
06:03PM 22.9891 -82.4091 180° South  Level Estimated
06:04PM 22.9891 -82.4091 180° South  Level Estimated
06:05PM 22.9891 -82.4091 180° South  Level Estimated
06:06PM 22.9891 -82.4091 180° South  Level Estimated
06:07PM 22.9891 -82.4091 180° South  Level Estimated
06:08PM 22.9891 -82.4091 180° South  Level Estimated
06:09PM 22.9891 -82.4091 180° South  Level Estimated
06:10PM 22.9891 -82.4091 180° South  Level Estimated
06:11PM 22.9891 -82.4091 180° South  Level Estimated
06:12PM 22.9891 -82.4091 180° South  Level Estimated
06:13PM 22.9891 -82.4091 180° South  Level Estimated
06:14PM 22.9891 -82.4091 180° South  Level Estimated
06:15PM 22.9891 -82.4091 180° South  Level Estimated
06:16PM 22.9891 -82.4091 180° South  Level Estimated
06:17PM 22.9891 -82.4091 180° South  Level Estimated
06:18PM 22.9891 -82.4091 180° South  Level Estimated
06:19PM 22.9891 -82.4091 180° South  Level Estimated
06:20PM 22.9891 -82.4091 180° South  Level Estimated
06:21PM 22.9891 -82.4091 180° South  Level Estimated
06:22PM 22.9891 -82.4091 180° South  Level Estimated